createdAt,value
2023-04-12T00:06:17.998Z,10.2
2023-04-12T00:16:18.221Z,10.1
2023-04-12T00:26:18.715Z,10.1
2023-04-12T00:36:19.248Z,10.1
2023-04-12T00:46:20.220Z,10.2
2023-04-12T00:56:20.605Z,10.2
2023-04-12T01:06:20.834Z,10.3
2023-04-12T01:26:22.642Z,10.2
2023-04-12T01:46:24.331Z,9.9
2023-04-12T02:16:26.339Z,9.7
2023-04-12T02:26:27.129Z,9.7
2023-04-12T02:36:28.133Z,9.6
2023-04-12T02:46:28.978Z,9.5
2023-04-12T02:56:29.620Z,9.4
2023-04-12T03:06:30.707Z,9.3
2023-04-12T03:26:31.795Z,9
2023-04-12T03:46:33.756Z,8.9
2023-04-12T03:56:34.412Z,8.9
2023-04-12T04:06:34.914Z,8.9
2023-04-12T04:16:35.262Z,9
2023-04-12T04:26:36.025Z,8.9
2023-04-12T04:36:36.632Z,9
2023-04-12T04:46:37.064Z,9
2023-04-12T05:06:37.942Z,8.9
2023-04-12T05:16:38.362Z,8.8
2023-04-12T05:26:38.832Z,8.8
2023-04-12T05:46:39.498Z,8.4
2023-04-12T05:56:39.864Z,8.3
2023-04-12T06:16:41.887Z,8.2
2023-04-12T06:26:41.091Z,8.2
2023-04-12T06:46:42.257Z,8.3
2023-04-12T06:56:42.950Z,8.3
2023-04-12T07:06:43.275Z,8.4
2023-04-12T07:16:43.490Z,8.5
2023-04-12T07:26:44.220Z,8.5
2023-04-12T07:36:44.456Z,8.6
2023-04-12T07:46:45.012Z,8.7
2023-04-12T08:56:48.651Z,9.6
2023-04-12T09:06:49.317Z,9.7
2023-04-12T09:36:51.214Z,9.6
2023-04-12T10:36:55.180Z,10.5
2023-04-12T10:56:56.078Z,11.2
2023-04-12T11:06:58.993Z,11.1
2023-04-12T11:16:56.962Z,10
2023-04-12T11:26:57.223Z,9.4
2023-04-12T11:36:57.942Z,8.9
2023-04-12T11:56:58.504Z,10.2
2023-04-12T12:06:59.457Z,10.4
2023-04-12T12:16:59.867Z,10.8
2023-04-12T12:27:00.454Z,11.3
2023-04-12T12:37:00.783Z,12.4
2023-04-12T12:47:09.985Z,13
2023-04-12T12:57:02.370Z,12.7
2023-04-12T13:07:03.275Z,13.1
2023-04-12T13:17:03.854Z,13.6
2023-04-12T13:27:04.286Z,14.6
2023-04-12T13:37:04.839Z,14.7
2023-04-12T13:47:05.268Z,14.2
2023-04-12T13:57:05.493Z,14
2023-04-12T14:07:06.107Z,13.2
2023-04-12T14:27:07.596Z,10.2
2023-04-12T14:37:08.360Z,9.1
2023-04-12T14:47:09.261Z,8.7
2023-04-12T14:57:09.740Z,8.5
2023-04-12T15:07:10.782Z,8.5
2023-04-12T15:17:11.735Z,8.7
2023-04-12T15:27:11.994Z,8.9
2023-04-12T15:37:12.448Z,9.1
2023-04-12T15:47:13.314Z,9.1
2023-04-12T15:57:14.277Z,9.1
2023-04-12T16:07:14.460Z,9.3
2023-04-12T16:17:14.946Z,9.6
2023-04-12T16:27:15.813Z,9.6
2023-04-12T16:37:16.857Z,9.4
2023-04-12T16:47:17.230Z,9.3
2023-04-12T16:57:17.962Z,9.1
2023-04-12T17:07:19.048Z,8.9
2023-04-12T17:17:20.128Z,8.8
2023-04-12T17:27:20.604Z,8.7
2023-04-12T17:37:21.271Z,8.8
2023-04-12T17:47:21.796Z,8.8
2023-04-12T17:57:22.486Z,8.6
2023-04-12T18:07:23.392Z,8.5
2023-04-12T18:17:26.492Z,8.2
2023-04-12T18:27:25.019Z,8
2023-04-12T18:37:25.525Z,7.9
2023-04-12T18:47:25.770Z,7.8
2023-04-12T18:57:26.330Z,7.5
2023-04-12T19:07:26.511Z,7.2
2023-04-12T19:17:27.135Z,6.8
2023-04-12T19:27:28.046Z,6.7
2023-04-12T19:37:28.343Z,6.8
2023-04-12T19:47:29.102Z,6.8
2023-04-12T19:57:29.686Z,6.9
2023-04-12T20:07:30.700Z,6.8
2023-04-12T20:17:31.440Z,6.9
2023-04-12T20:37:32.298Z,6.9
2023-04-12T20:47:32.912Z,6.9
2023-04-12T20:57:33.286Z,7.1
2023-04-12T21:07:34.241Z,7.2
2023-04-12T21:17:35.311Z,7.2
2023-04-12T21:27:35.821Z,7.2
2023-04-12T21:47:37.961Z,7.2
2023-04-12T21:57:38.277Z,7.2
2023-04-12T22:07:39.108Z,7.2
2023-04-12T22:17:39.977Z,7.2
2023-04-12T22:27:40.267Z,7.2
2023-04-12T22:37:40.817Z,7.5
2023-04-12T22:47:41.098Z,7.4
2023-04-12T22:57:41.259Z,7.2
2023-04-12T23:07:42.325Z,7.1
2023-04-12T23:17:42.994Z,7
2023-04-12T23:37:44.434Z,6.9
2023-04-12T23:47:45.272Z,7
2023-04-12T23:57:46.097Z,7
